aviador You're here:

SAWE Decoded Metar

RIO GRANDE in ARGENTINA
Report Time2017-08-18 16:00:00
UTC Time2017-08-18 16:30:01
Flight Rules vfr VFR
Wind140° at 07 kt
W.Decomp.*RWY 07: 3.7 kt HW 5.9 kt RCW
W.Rank140° ranks 15
Current wind is below 140° avg. (7.4)
Visibility9999 m
Phenomena:N/A
Clouds:Scattered 020 Hf
Expected CloudBase > 400 ft AGL from Temp-Dew spread
CeilingNone
Temp02°C (ISA -13)
Dew Point01°C (93% RH)
AAT-2.4°C
QNH0992 hPa
Density Alt-679 ft
Elevation72 ft
Report Wrong Elevation
Raw Report
SAWE 181600Z 14007KT 9999 SCT020 02/01 Q0992=

Extra information for SAWE:More info

Metar Taf Metar & Taf Last 4 Metars F.Rules Stats Wind Profile Meteogram Temp Stats Airport Information Weather charts Add Link Nearby VenuesMetar ALERT Operation Metar Decoded Social comments